Time;durP1;ratioP1;P1;durP2;ratioP2;P2;SDS_P1;SDS_P2;PMS_P1;PMS_P2;Temp;Humidity;BMP_temperature;BMP_pressure;BME280_temperature;BME280_humidity;BME280_pressure;Samples;Min_cycle;Max_cycle;Signal;HPM_P1;HPM_P2
2022/06/26 00:01:23;;;;;;;0.30;0.20;;;23.70;43.80;;;;;;6147070;28;20052;-46
2022/06/26 00:04:24;;;;;;;0.20;0.20;;;23.70;43.80;;;;;;6147570;28;20656;-44
2022/06/26 00:07:26;;;;;;;0.40;0.20;;;23.70;43.90;;;;;;6147171;28;20053;-46
2022/06/26 00:10:28;;;;;;;0.63;0.20;;;23.70;43.90;;;;;;6147609;28;20129;-48
2022/06/26 00:13:30;;;;;;;0.60;0.30;;;23.70;43.90;;;;;;6146936;28;20045;-46
2022/06/26 00:16:32;;;;;;;0.25;0.20;;;23.70;44.00;;;;;;6149633;28;20993;-47
2022/06/26 00:19:34;;;;;;;0.52;0.28;;;23.70;44.00;;;;;;6147779;28;20728;-44
2022/06/26 00:22:35;;;;;;;0.38;0.20;;;23.70;44.10;;;;;;6146616;28;20108;-44
2022/06/26 00:25:37;;;;;;;0.70;0.20;;;23.70;44.10;;;;;;6146412;28;20065;-46
2022/06/26 00:28:38;;;;;;;0.52;0.40;;;23.70;44.20;;;;;;6149418;28;20854;-45
2022/06/26 00:31:41;;;;;;;0.40;0.20;;;23.60;44.10;;;;;;6150228;28;20089;-45
2022/06/26 00:34:42;;;;;;;0.47;0.30;;;23.70;44.20;;;;;;6148451;28;20066;-45
2022/06/26 00:37:44;;;;;;;0.60;0.32;;;23.60;44.10;;;;;;6147453;28;20164;-43
2022/06/26 00:40:45;;;;;;;0.30;0.30;;;23.70;44.20;;;;;;6146565;28;20045;-44
2022/06/26 00:43:47;;;;;;;0.43;0.20;;;23.70;44.20;;;;;;6146121;28;20043;-43
2022/06/26 00:46:50;;;;;;;0.45;0.30;;;23.70;44.30;;;;;;6147269;28;20042;-44
2022/06/26 00:49:52;;;;;;;0.40;0.20;;;23.70;44.30;;;;;;6147307;28;20127;-46
2022/06/26 00:52:54;;;;;;;0.32;0.20;;;23.50;44.20;;;;;;6145852;28;20066;-44
2022/06/26 00:55:56;;;;;;;0.30;0.30;;;23.70;44.30;;;;;;6131608;28;20047;-46
2022/06/26 00:58:58;;;;;;;0.30;0.22;;;23.70;44.30;;;;;;6147220;28;20081;-45
2022/06/26 01:02:00;;;;;;;0.20;0.20;;;23.60;44.30;;;;;;6143118;28;20166;-47
2022/06/26 01:05:02;;;;;;;0.32;0.20;;;23.50;44.30;;;;;;6143699;28;20058;-43
2022/06/26 01:08:04;;;;;;;0.20;0.10;;;23.60;44.40;;;;;;6136045;28;20050;-45
2022/06/26 01:11:17;;;;;;;0.50;0.20;;;23.70;44.40;;;;;;6132672;28;20046;-43
2022/06/26 01:14:19;;;;;;;0.50;0.13;;;23.60;44.30;;;;;;6131991;28;20073;-44
2022/06/26 01:17:22;;;;;;;0.22;0.20;;;23.70;44.40;;;;;;6135371;28;20042;-46
2022/06/26 01:20:24;;;;;;;0.60;0.30;;;23.70;44.40;;;;;;6135194;28;20267;-44
2022/06/26 01:23:26;;;;;;;0.60;0.30;;;23.60;44.30;;;;;;6135576;28;20051;-44
2022/06/26 01:26:29;;;;;;;0.40;0.20;;;23.80;44.50;;;;;;6135230;28;20259;-44
2022/06/26 01:29:31;;;;;;;0.40;0.20;;;23.60;44.30;;;;;;6123066;28;20129;-42
2022/06/26 01:32:33;;;;;;;0.38;0.20;;;23.60;44.40;;;;;;6135146;28;20100;-46
2022/06/26 01:35:34;;;;;;;0.13;0.13;;;23.60;44.40;;;;;;6137011;28;20407;-44
2022/06/26 01:38:40;;;;;;;0.47;0.20;;;23.70;44.40;;;;;;6136699;28;20124;-46
2022/06/26 01:41:41;;;;;;;0.35;0.20;;;23.70;44.50;;;;;;6134968;28;20404;-44
2022/06/26 01:44:44;;;;;;;0.28;0.17;;;23.80;44.50;;;;;;6133902;28;20823;-44
2022/06/26 01:47:47;;;;;;;0.50;0.43;;;23.70;44.50;;;;;;6134597;28;20314;-44
2022/06/26 01:50:49;;;;;;;0.38;0.25;;;23.50;44.40;;;;;;6134070;28;20042;-42
2022/06/26 01:53:51;;;;;;;0.50;0.20;;;23.60;44.50;;;;;;6133065;28;20038;-43
2022/06/26 01:56:53;;;;;;;0.52;0.30;;;23.60;44.50;;;;;;6135571;28;20251;-44
2022/06/26 01:59:55;;;;;;;0.50;0.30;;;23.60;44.50;;;;;;6133269;28;20120;-45
2022/06/26 02:02:59;;;;;;;0.30;0.20;;;23.70;44.60;;;;;;6130102;28;20351;-46
2022/06/26 02:06:02;;;;;;;0.40;0.17;;;23.60;44.50;;;;;;6119299;28;20033;-48
2022/06/26 02:13:35;;;;;;;0.50;0.20;;;23.60;44.60;;;;;;6132684;28;20569;-44
2022/06/26 02:15:45;;;;;;;0.30;0.20;;;23.60;44.60;;;;;;6134601;28;20501;-44
2022/06/26 02:18:49;;;;;;;0.82;0.30;;;23.60;45.20;;;;;;6135144;28;20484;-45
2022/06/26 02:21:51;;;;;;;0.47;0.20;;;23.80;44.70;;;;;;6132624;28;20050;-44
2022/06/26 02:24:53;;;;;;;0.52;0.20;;;23.60;44.60;;;;;;6130786;28;20326;-42
2022/06/26 02:27:54;;;;;;;0.30;0.28;;;23.60;44.70;;;;;;6131806;28;20057;-43
2022/06/26 02:30:57;;;;;;;0.10;0.10;;;23.60;44.70;;;;;;6133816;28;20291;-42
2022/06/26 02:34:00;;;;;;;0.43;0.20;;;23.70;44.70;;;;;;6136546;28;20488;-42
2022/06/26 02:37:02;;;;;;;0.45;0.13;;;23.60;44.70;;;;;;6134891;28;20776;-44
2022/06/26 02:40:06;;;;;;;0.20;0.10;;;23.60;44.80;;;;;;6136217;28;20057;-47
2022/06/26 02:43:09;;;;;;;0.30;0.13;;;23.50;44.70;;;;;;6121179;28;20468;-45
2022/06/26 02:46:11;;;;;;;0.20;0.20;;;23.70;44.80;;;;;;6136765;28;20038;-46
2022/06/26 02:49:13;;;;;;;0.30;0.20;;;23.60;44.70;;;;;;6139086;28;20064;-43
2022/06/26 02:52:14;;;;;;;0.30;0.20;;;23.50;44.80;;;;;;6137549;28;20049;-44
2022/06/26 02:55:18;;;;;;;0.43;0.20;;;23.50;44.70;;;;;;6140523;28;20312;-43
2022/06/26 02:58:19;;;;;;;0.30;0.20;;;23.40;44.70;;;;;;6138612;28;20149;-46
2022/06/26 03:01:28;;;;;;;0.50;0.20;;;23.60;44.80;;;;;;6139403;28;20880;-42
2022/06/26 03:04:42;;;;;;;0.80;0.10;;;23.40;44.80;;;;;;6136806;28;20074;-46
2022/06/26 03:07:45;;;;;;;0.15;0.10;;;23.50;44.80;;;;;;6137315;28;20217;-44
2022/06/26 03:10:49;;;;;;;0.10;0.10;;;23.50;44.80;;;;;;6138840;28;20288;-44
2022/06/26 03:13:50;;;;;;;0.65;0.30;;;23.50;44.80;;;;;;6137613;28;20435;-45
2022/06/26 03:16:52;;;;;;;0.20;0.20;;;23.50;44.80;;;;;;6140083;28;20046;-44
2022/06/26 03:19:54;;;;;;;0.35;0.20;;;23.50;44.90;;;;;;6125863;28;20054;-45
2022/06/26 03:22:56;;;;;;;0.30;0.20;;;23.40;44.90;;;;;;6137452;28;20318;-44
2022/06/26 03:25:58;;;;;;;0.40;0.10;;;23.50;44.80;;;;;;6134205;28;20660;-44
2022/06/26 03:29:02;;;;;;;0.20;0.20;;;23.40;44.80;;;;;;6138619;28;20128;-45
2022/06/26 03:32:05;;;;;;;0.20;0.10;;;23.40;44.80;;;;;;6120060;28;20268;-43
2022/06/26 03:35:09;;;;;;;0.25;0.20;;;23.50;44.90;;;;;;6137274;28;20077;-42
2022/06/26 03:38:11;;;;;;;0.40;0.20;;;23.50;45.00;;;;;;6134920;28;20124;-44
2022/06/26 03:41:14;;;;;;;0.20;0.20;;;23.40;44.90;;;;;;6133760;28;20045;-45
2022/06/26 03:44:15;;;;;;;0.20;0.10;;;23.60;45.00;;;;;;6134302;28;20057;-45
2022/06/26 03:47:17;;;;;;;0.43;0.10;;;23.50;45.00;;;;;;6137036;28;20190;-42
2022/06/26 03:50:24;;;;;;;0.40;0.13;;;23.50;45.10;;;;;;6136825;28;20162;-45
2022/06/26 03:53:26;;;;;;;0.30;0.20;;;23.40;45.00;;;;;;6135505;28;20050;-47
2022/06/26 03:56:28;;;;;;;0.47;0.20;;;23.40;45.30;;;;;;6136636;28;20260;-45
2022/06/26 03:59:30;;;;;;;0.10;0.10;;;23.70;45.20;;;;;;6135843;28;20038;-45
2022/06/26 04:02:35;;;;;;;0.40;0.22;;;23.40;45.10;;;;;;6125720;28;20284;-43
2022/06/26 04:05:37;;;;;;;0.80;0.20;;;23.40;45.10;;;;;;6136904;28;20775;-46
2022/06/26 04:08:38;;;;;;;0.10;0.10;;;23.50;45.20;;;;;;6124727;28;20557;-47
2022/06/26 04:11:44;;;;;;;0.20;0.17;;;23.50;45.20;;;;;;6135366;28;20038;-42
2022/06/26 04:14:46;;;;;;;0.30;0.17;;;23.40;45.10;;;;;;6134389;28;20397;-44
2022/06/26 04:17:48;;;;;;;0.35;0.20;;;23.40;45.20;;;;;;6133274;28;20869;-44
2022/06/26 04:20:50;;;;;;;0.30;0.20;;;23.40;45.20;;;;;;6134824;28;20312;-43
2022/06/26 04:23:52;;;;;;;0.10;0.10;;;23.40;45.30;;;;;;6133913;28;20045;-44
2022/06/26 04:26:55;;;;;;;0.30;0.20;;;23.40;45.30;;;;;;6131891;28;20590;-47
2022/06/26 04:29:57;;;;;;;0.25;0.10;;;23.50;45.40;;;;;;6136285;28;20038;-45
2022/06/26 04:32:58;;;;;;;0.55;0.20;;;23.40;45.30;;;;;;6122681;28;20558;-42
2022/06/26 04:36:01;;;;;;;0.90;0.20;;;23.40;45.30;;;;;;6136859;28;20599;-45
2022/06/26 04:39:04;;;;;;;0.45;0.10;;;23.30;45.20;;;;;;6136049;28;20085;-43
2022/06/26 04:42:07;;;;;;;0.38;0.20;;;23.40;45.30;;;;;;6133580;28;20505;-45
2022/06/26 04:45:13;;;;;;;0.20;0.20;;;23.40;45.40;;;;;;6134260;28;20048;-47
2022/06/26 04:48:17;;;;;;;0.80;0.20;;;23.30;45.40;;;;;;6123456;28;20760;-42
2022/06/26 04:51:18;;;;;;;0.10;0.10;;;23.40;45.40;;;;;;6136092;28;20578;-43
2022/06/26 04:54:20;;;;;;;0.10;0.10;;;23.50;45.50;;;;;;6133637;28;20412;-43
2022/06/26 04:57:23;;;;;;;0.63;0.20;;;23.40;46.10;;;;;;6133084;28;20209;-43
2022/06/26 05:00:26;;;;;;;0.10;0.10;;;23.30;45.50;;;;;;6119825;28;20046;-46
2022/06/26 05:03:36;;;;;;;0.28;0.10;;;23.40;45.60;;;;;;6134500;28;20602;-43
2022/06/26 05:07:01;;;;;;;0.40;0.10;;;23.30;45.50;;;;;;6133957;28;20058;-42
2022/06/26 05:10:08;;;;;;;0.15;0.10;;;23.40;45.60;;;;;;6133857;28;20365;-45
2022/06/26 05:13:23;;;;;;;0.17;0.10;;;23.30;45.60;;;;;;6131117;28;20134;-47
2022/06/26 05:16:35;;;;;;;0.95;0.40;;;23.40;45.70;;;;;;6132436;28;20038;-42
2022/06/26 05:19:37;;;;;;;0.38;0.20;;;23.30;45.70;;;;;;6118012;28;20046;-46
2022/06/26 05:22:43;;;;;;;0.15;0.10;;;23.30;45.70;;;;;;6129749;28;20506;-43
2022/06/26 05:25:46;;;;;;;0.30;0.20;;;23.20;45.70;;;;;;6114602;28;20093;-42
2022/06/26 05:28:48;;;;;;;0.45;0.20;;;23.30;45.80;;;;;;6135661;28;20073;-43
2022/06/26 05:31:50;;;;;;;0.45;0.20;;;23.40;45.90;;;;;;6133895;28;20034;-45
2022/06/26 05:34:51;;;;;;;0.80;0.25;;;23.40;45.90;;;;;;6138294;28;20077;-43
2022/06/26 05:37:53;;;;;;;0.30;0.10;;;23.30;45.90;;;;;;6133790;28;20351;-45
2022/06/26 05:40:55;;;;;;;0.55;0.55;;;23.30;45.90;;;;;;6138476;28;20660;-46
2022/06/26 05:43:57;;;;;;;0.60;0.28;;;23.30;46.00;;;;;;6138158;28;20080;-42
2022/06/26 05:47:02;;;;;;;0.30;0.20;;;23.20;46.00;;;;;;6122462;28;20119;-44
2022/06/26 05:50:20;;;;;;;0.38;0.10;;;23.40;46.10;;;;;;6136327;28;20058;-42
2022/06/26 05:53:38;;;;;;;0.52;0.20;;;23.30;46.10;;;;;;6135750;28;20064;-45
2022/06/26 05:56:58;;;;;;;0.32;0.17;;;23.40;46.10;;;;;;6138082;28;20054;-45
2022/06/26 06:00:19;;;;;;;0.13;0.10;;;23.40;46.20;;;;;;6134028;28;20855;-43
2022/06/26 06:03:20;;;;;;;0.28;0.20;;;23.40;46.20;;;;;;6130446;28;20215;-42
2022/06/26 06:06:28;;;;;;;0.30;0.22;;;23.30;46.20;;;;;;6129183;28;20484;-43
2022/06/26 06:09:29;;;;;;;0.17;0.10;;;23.30;46.20;;;;;;6128900;28;20610;-47
2022/06/26 06:12:31;;;;;;;0.52;0.30;;;23.30;46.20;;;;;;6126723;28;20042;-45
2022/06/26 06:15:34;;;;;;;0.20;0.10;;;23.40;46.30;;;;;;6120020;28;20050;-44
2022/06/26 06:18:35;;;;;;;0.30;0.20;;;23.40;46.40;;;;;;6128660;28;20081;-43
2022/06/26 06:21:42;;;;;;;0.30;0.20;;;23.40;46.40;;;;;;6122194;28;20073;-45
2022/06/26 06:24:45;;;;;;;0.30;0.20;;;23.40;46.50;;;;;;6126880;28;20525;-44
2022/06/26 06:27:47;;;;;;;0.20;0.20;;;23.40;46.50;;;;;;6126561;28;20631;-43
2022/06/26 06:30:53;;;;;;;0.20;0.13;;;23.40;46.60;;;;;;6125308;28;20498;-43
2022/06/26 06:33:59;;;;;;;0.10;0.10;;;23.40;46.60;;;;;;6126748;28;20046;-47
2022/06/26 06:37:06;;;;;;;0.30;0.20;;;23.40;46.60;;;;;;6128651;28;20088;-43
2022/06/26 06:40:09;;;;;;;0.30;0.20;;;23.40;46.70;;;;;;6124654;28;20558;-44
2022/06/26 06:43:14;;;;;;;0.43;0.20;;;23.30;46.70;;;;;;6127811;28;20235;-43
2022/06/26 06:46:29;;;;;;;0.50;0.20;;;23.50;46.80;;;;;;6125093;28;20656;-44
2022/06/26 06:49:35;;;;;;;0.13;0.10;;;23.50;46.90;;;;;;6123868;28;20498;-44
2022/06/26 06:52:46;;;;;;;0.17;0.10;;;23.50;46.90;;;;;;6124728;28;20042;-43
2022/06/26 06:55:49;;;;;;;0.30;0.20;;;23.40;47.00;;;;;;6126744;28;20252;-44
2022/06/26 06:58:50;;;;;;;0.20;0.20;;;23.30;47.00;;;;;;6127886;28;20042;-44
2022/06/26 07:01:52;;;;;;;0.38;0.20;;;23.50;47.20;;;;;;6125662;28;20105;-43
2022/06/26 07:04:54;;;;;;;0.32;0.15;;;23.50;47.20;;;;;;6123826;28;20042;-44
2022/06/26 07:07:57;;;;;;;0.43;0.20;;;23.50;47.30;;;;;;6123850;28;20293;-47
2022/06/26 07:10:58;;;;;;;0.98;0.20;;;23.50;47.30;;;;;;6118956;28;20497;-47
2022/06/26 07:14:00;;;;;;;0.30;0.17;;;23.50;47.40;;;;;;6122943;28;20054;-46
2022/06/26 07:17:02;;;;;;;0.20;0.10;;;23.50;47.40;;;;;;6117034;28;20571;-43
2022/06/26 07:20:05;;;;;;;0.30;0.10;;;23.40;47.30;;;;;;6124966;28;20749;-43
2022/06/26 07:23:07;;;;;;;0.35;0.17;;;23.50;47.50;;;;;;6123697;28;20046;-45
2022/06/26 07:26:28;;;;;;;;;;;23.50;47.50;;;;;;6124974;28;20933;-46
2022/06/26 07:29:32;;;;;;;0.15;0.15;;;23.60;47.50;;;;;;6131472;28;20673;-43
2022/06/26 07:32:34;;;;;;;0.20;0.10;;;23.60;47.40;;;;;;6109005;28;20703;-43
2022/06/26 07:35:36;;;;;;;0.30;0.20;;;23.50;47.50;;;;;;6124730;28;20472;-44
2022/06/26 07:38:40;;;;;;;0.63;0.25;;;23.60;47.60;;;;;;6125856;28;20039;-43
2022/06/26 07:41:43;;;;;;;0.40;0.20;;;23.60;47.60;;;;;;6126822;28;20141;-45
2022/06/26 07:44:46;;;;;;;0.30;0.20;;;23.60;47.70;;;;;;6107656;28;20045;-46
2022/06/26 07:47:50;;;;;;;0.28;0.10;;;23.60;47.70;;;;;;6126551;28;20081;-47
2022/06/26 07:50:53;;;;;;;0.43;0.20;;;23.50;47.60;;;;;;6123598;28;20077;-44
2022/06/26 07:53:54;;;;;;;0.30;0.20;;;23.60;47.70;;;;;;6122548;28;20113;-43
2022/06/26 07:56:56;;;;;;;0.32;0.10;;;23.60;47.70;;;;;;6121149;28;20042;-44
2022/06/26 07:59:59;;;;;;;0.40;0.30;;;23.60;47.70;;;;;;6129899;28;20070;-42
2022/06/26 08:03:04;;;;;;;0.45;0.20;;;23.60;47.60;;;;;;6123103;28;20149;-44
2022/06/26 08:06:06;;;;;;;0.45;0.20;;;23.60;47.60;;;;;;6125799;28;20486;-46
2022/06/26 08:09:08;;;;;;;0.80;0.35;;;23.70;47.60;;;;;;6127679;28;20514;-45
2022/06/26 08:12:09;;;;;;;0.35;0.20;;;23.70;47.60;;;;;;6120146;28;20625;-43
2022/06/26 08:15:11;;;;;;;0.13;0.10;;;23.70;47.50;;;;;;6127500;28;20561;-44
2022/06/26 08:18:14;;;;;;;0.30;0.20;;;23.60;47.40;;;;;;6126595;28;20267;-46
2022/06/26 08:24:29;;;;;;;0.10;0.10;;;23.60;47.40;;;;;;6123696;28;20062;-44
2022/06/26 08:27:31;;;;;;;0.52;0.17;;;23.60;47.30;;;;;;6111142;28;20042;-45
2022/06/26 08:30:32;;;;;;;0.52;0.30;;;23.60;47.30;;;;;;6107863;28;20309;-45
2022/06/26 08:33:35;;;;;;;0.63;0.20;;;23.70;47.30;;;;;;6126699;28;20514;-43
2022/06/26 08:36:38;;;;;;;0.47;0.17;;;23.70;47.20;;;;;;6131819;28;20134;-46
2022/06/26 08:39:40;;;;;;;0.20;0.10;;;23.70;47.20;;;;;;6113138;28;20444;-45
2022/06/26 08:42:42;;;;;;;0.20;0.20;;;23.70;47.10;;;;;;6133403;28;20356;-46
2022/06/26 08:45:44;;;;;;;0.90;0.20;;;23.70;47.10;;;;;;6127737;28;20034;-45
2022/06/26 08:48:49;;;;;;;0.63;0.22;;;23.70;47.10;;;;;;6130837;28;20053;-42
2022/06/26 08:51:53;;;;;;;0.40;0.20;;;23.80;47.10;;;;;;6126725;28;20597;-46
2022/06/26 08:54:55;;;;;;;0.13;0.10;;;23.80;47.00;;;;;;6111245;28;20039;-45
2022/06/26 08:58:00;;;;;;;0.32;0.10;;;23.80;47.00;;;;;;6127651;28;20423;-45
2022/06/26 09:01:04;;;;;;;0.43;0.25;;;23.80;46.90;;;;;;6113524;28;20546;-45
2022/06/26 09:04:07;;;;;;;0.55;0.20;;;23.70;46.80;;;;;;6126127;28;20442;-45
2022/06/26 09:07:09;;;;;;;0.50;0.10;;;23.80;46.70;;;;;;6113041;28;20306;-45
2022/06/26 09:10:11;;;;;;;0.47;0.20;;;23.80;46.60;;;;;;6108550;28;20046;-42
2022/06/26 09:13:13;;;;;;;0.20;0.10;;;23.80;46.50;;;;;;6120352;28;21148;-44
2022/06/26 09:16:15;;;;;;;0.10;0.10;;;23.80;46.50;;;;;;6123974;28;20046;-42
2022/06/26 09:19:19;;;;;;;0.57;0.22;;;23.90;46.50;;;;;;6126962;28;20046;-45
2022/06/26 09:22:22;;;;;;;0.52;0.30;;;23.90;46.30;;;;;;6111082;28;20732;-46
2022/06/26 09:25:34;;;;;;;0.15;0.10;;;23.90;46.20;;;;;;6125506;28;20541;-45
2022/06/26 09:28:35;;;;;;;0.43;0.20;;;23.90;46.20;;;;;;6128376;28;20235;-45
2022/06/26 09:31:38;;;;;;;0.28;0.20;;;23.90;46.20;;;;;;6123144;28;20238;-44
2022/06/26 09:34:45;;;;;;;0.17;0.15;;;23.90;46.10;;;;;;6112618;28;20509;-45
2022/06/26 09:37:47;;;;;;;0.70;0.10;;;24.00;46.20;;;;;;6109523;28;20574;-44
2022/06/26 09:41:01;;;;;;;0.45;0.28;;;24.00;46.30;;;;;;6118997;28;20141;-46
2022/06/26 09:44:02;;;;;;;0.10;0.10;;;24.00;46.40;;;;;;6124608;28;20144;-42
2022/06/26 09:47:07;;;;;;;0.28;0.10;;;24.00;46.50;;;;;;6123345;28;20350;-44
2022/06/26 09:50:09;;;;;;;0.60;0.15;;;23.90;46.60;;;;;;6123030;28;20157;-45
2022/06/26 09:53:11;;;;;;;0.30;0.20;;;24.00;46.70;;;;;;6120768;28;20078;-45
2022/06/26 09:56:12;;;;;;;0.30;0.20;;;24.00;46.70;;;;;;6118888;28;20509;-45
2022/06/26 09:59:14;;;;;;;0.30;0.30;;;24.00;46.80;;;;;;6117345;28;20268;-44
2022/06/26 10:08:49;;;;;;;0.32;0.20;;;24.10;46.70;;;;;;6120866;28;20081;-48
2022/06/26 10:11:52;;;;;;;0.20;0.20;;;24.10;46.60;;;;;;6126391;28;20133;-46
2022/06/26 10:14:55;;;;;;;0.30;0.20;;;24.00;46.40;;;;;;6119889;28;20753;-44
2022/06/26 10:18:13;;;;;;;0.13;0.10;;;24.00;46.20;;;;;;6111525;28;20157;-45
2022/06/26 10:21:15;;;;;;;0.55;0.10;;;24.20;46.10;;;;;;6122742;28;20446;-42
2022/06/26 10:24:17;;;;;;;0.32;0.20;;;24.10;45.90;;;;;;6119247;28;20078;-45
2022/06/26 10:27:24;;;;;;;0.55;0.10;;;24.20;45.70;;;;;;6122762;28;20050;-47
2022/06/26 10:30:29;;;;;;;0.30;0.10;;;24.20;45.60;;;;;;6108956;28;20069;-43
2022/06/26 10:33:31;;;;;;;0.10;0.10;;;24.20;45.40;;;;;;6114340;28;20168;-46
2022/06/26 10:36:33;;;;;;;0.20;0.15;;;24.30;45.30;;;;;;6123209;28;20046;-45
2022/06/26 10:39:45;;;;;;;0.30;0.20;;;24.20;45.60;;;;;;6125871;28;20525;-46
2022/06/26 10:42:55;;;;;;;0.25;0.25;;;24.30;44.80;;;;;;6113204;28;20751;-44
2022/06/26 10:46:02;;;;;;;0.20;0.20;;;24.30;44.60;;;;;;6107178;28;20042;-43
2022/06/26 10:49:07;;;;;;;0.20;0.10;;;24.30;44.40;;;;;;6124980;28;20324;-43
2022/06/26 10:52:10;;;;;;;0.30;0.20;;;24.40;44.30;;;;;;6128500;28;21339;-46
2022/06/26 10:55:11;;;;;;;0.28;0.20;;;24.30;44.10;;;;;;6128080;28;25187;-45
2022/06/26 10:58:19;;;;;;;0.20;0.10;;;24.40;44.00;;;;;;6127183;28;20505;-43
2022/06/26 11:01:21;;;;;;;0.15;0.13;;;24.30;44.00;;;;;;6108846;28;20448;-45
2022/06/26 11:04:23;;;;;;;0.20;0.17;;;24.30;44.20;;;;;;6129891;28;20476;-45
2022/06/26 11:07:25;;;;;;;0.32;0.10;;;24.40;44.50;;;;;;6132463;28;20255;-42
2022/06/26 11:10:28;;;;;;;0.17;0.17;;;24.30;44.80;;;;;;6112820;28;20129;-44
2022/06/26 11:13:30;;;;;;;0.15;0.15;;;24.30;45.20;;;;;;6126984;28;20148;-43
2022/06/26 11:16:34;;;;;;;0.52;0.10;;;24.30;45.50;;;;;;6126523;28;20601;-45
2022/06/26 11:20:46;;;;;;;0.10;0.10;;;24.30;45.70;;;;;;6127518;28;20286;-44
2022/06/26 11:22:58;;;;;;;;;;;24.40;46.10;;;;;;6120118;28;20051;-47
2022/06/26 11:26:02;;;;;;;0.20;0.20;;;24.20;46.20;;;;;;6127772;28;19925;-43
2022/06/26 11:29:05;;;;;;;0.10;0.05;;;24.30;46.40;;;;;;6113016;28;20506;-43
2022/06/26 11:32:07;;;;;;;0.20;0.20;;;24.30;47.00;;;;;;6130601;28;20127;-48
2022/06/26 11:35:09;;;;;;;0.20;0.20;;;24.30;47.50;;;;;;6129917;28;20676;-48
2022/06/26 11:38:13;;;;;;;0.43;0.20;;;24.20;48.00;;;;;;6128887;28;20251;-44
2022/06/26 11:41:15;;;;;;;0.10;0.10;;;24.20;48.60;;;;;;6116899;28;20078;-44
2022/06/26 11:44:17;;;;;;;0.10;0.10;;;24.20;48.90;;;;;;6131613;28;20042;-43
2022/06/26 11:47:20;;;;;;;0.30;0.20;;;24.30;49.20;;;;;;6132922;28;20751;-43
2022/06/26 11:50:26;;;;;;;0.20;0.10;;;24.30;49.50;;;;;;6117628;28;20062;-43
2022/06/26 11:53:29;;;;;;;0.20;0.10;;;24.30;49.70;;;;;;6129731;28;20498;-45
2022/06/26 11:56:32;;;;;;;0.30;0.10;;;24.30;49.90;;;;;;6129262;28;20161;-47
2022/06/26 11:59:34;;;;;;;0.22;0.13;;;24.30;50.10;;;;;;6094483;28;20108;-45
2022/06/26 12:02:41;;;;;;;0.10;0.10;;;24.20;50.20;;;;;;6092153;28;20054;-45
2022/06/26 12:05:45;;;;;;;0.95;0.20;;;24.30;50.40;;;;;;6127888;28;20039;-44
2022/06/26 12:08:47;;;;;;;0.20;0.15;;;24.30;50.40;;;;;;6124633;28;20393;-44
2022/06/26 12:11:51;;;;;;;0.20;0.10;;;24.40;50.40;;;;;;6124474;28;20388;-46
2022/06/26 12:14:54;;;;;;;0.20;0.20;;;24.40;50.40;;;;;;6111320;28;20236;-44
2022/06/26 12:17:59;;;;;;;0.30;0.10;;;24.30;50.30;;;;;;6113863;28;20373;-43
2022/06/26 12:21:01;;;;;;;0.30;0.20;;;24.30;50.30;;;;;;6120206;28;20293;-44
2022/06/26 12:24:11;;;;;;;0.60;0.20;;;24.50;50.40;;;;;;6125733;28;20138;-45
2022/06/26 12:27:12;;;;;;;0.38;0.15;;;24.50;50.40;;;;;;6117875;28;20360;-46
2022/06/26 12:30:16;;;;;;;0.10;0.10;;;24.40;50.30;;;;;;6120337;28;20661;-44
2022/06/26 12:33:29;;;;;;;0.20;0.10;;;24.40;50.30;;;;;;6121219;28;20204;-43
2022/06/26 12:36:31;;;;;;;0.45;0.10;;;24.40;50.30;;;;;;6122733;28;20567;-42
2022/06/26 12:39:33;;;;;;;0.30;0.20;;;24.40;50.20;;;;;;6122452;28;20158;-43
2022/06/26 12:42:44;;;;;;;;;;;24.40;50.20;;;;;;6125253;28;20034;-44
2022/06/26 12:45:46;;;;;;;0.10;0.00;;;24.30;50.20;;;;;;6118213;28;19935;-46
2022/06/26 12:48:48;;;;;;;0.60;0.17;;;24.40;50.10;;;;;;6120987;28;20653;-45
2022/06/26 12:51:52;;;;;;;0.10;0.10;;;24.40;50.10;;;;;;6125041;28;20050;-47
2022/06/26 12:54:54;;;;;;;0.20;0.10;;;24.30;50.10;;;;;;6126847;28;20144;-43
2022/06/26 12:57:55;;;;;;;0.20;0.10;;;24.40;50.10;;;;;;6124081;28;20054;-44
2022/06/26 13:00:57;;;;;;;0.30;0.10;;;24.40;50.10;;;;;;6125505;28;20042;-48
2022/06/26 13:03:59;;;;;;;0.13;0.13;;;24.40;50.00;;;;;;6121652;28;21042;-44
2022/06/26 13:07:01;;;;;;;0.20;0.10;;;24.50;49.90;;;;;;6123539;28;20042;-44
2022/06/26 13:10:03;;;;;;;0.43;0.20;;;24.50;49.80;;;;;;6128916;28;20256;-43
2022/06/26 13:13:05;;;;;;;0.20;0.20;;;24.40;49.80;;;;;;6124337;28;20050;-48
2022/06/26 13:16:06;;;;;;;0.38;0.10;;;24.50;50.00;;;;;;6124046;28;20189;-46
2022/06/26 13:19:09;;;;;;;0.90;0.28;;;24.40;49.90;;;;;;6124600;28;20153;-47
2022/06/26 13:22:10;;;;;;;0.20;0.20;;;24.30;49.80;;;;;;6101984;28;20073;-44
2022/06/26 13:25:13;;;;;;;0.70;0.17;;;24.40;49.70;;;;;;6123738;28;20379;-46
2022/06/26 13:28:14;;;;;;;0.40;0.20;;;24.40;49.60;;;;;;6123022;28;20204;-46
2022/06/26 13:31:36;;;;;;;0.50;0.30;;;24.40;49.50;;;;;;6113971;28;20051;-48
2022/06/26 13:34:38;;;;;;;0.35;0.20;;;24.20;49.40;;;;;;6128001;28;20378;-49
2022/06/26 13:37:42;;;;;;;0.17;0.17;;;24.50;49.40;;;;;;6128838;28;20089;-42
2022/06/26 13:40:44;;;;;;;0.10;0.10;;;24.30;48.90;;;;;;6123801;28;20355;-43
2022/06/26 13:43:46;;;;;;;0.10;0.10;;;24.30;48.40;;;;;;6125254;28;20103;-47
2022/06/26 13:46:48;;;;;;;0.10;0.10;;;24.30;48.00;;;;;;6123060;28;20053;-45
2022/06/26 13:49:49;;;;;;;0.35;0.22;;;24.30;47.70;;;;;;6126089;28;20697;-45
2022/06/26 13:52:51;;;;;;;0.25;0.13;;;24.30;47.30;;;;;;6116743;28;20264;-46
2022/06/26 13:55:53;;;;;;;0.15;0.15;;;24.30;46.90;;;;;;6118293;28;21505;-44
2022/06/26 13:58:55;;;;;;;0.10;0.10;;;24.20;46.50;;;;;;6120671;28;20042;-43
2022/06/26 14:01:57;;;;;;;0.10;0.10;;;24.30;46.10;;;;;;6121659;28;20652;-45
2022/06/26 14:04:59;;;;;;;0.40;0.10;;;24.30;45.80;;;;;;6119579;28;20061;-45
2022/06/26 14:08:00;;;;;;;0.10;0.10;;;24.30;45.40;;;;;;6126213;28;20664;-44
2022/06/26 14:11:03;;;;;;;0.20;0.20;;;24.30;45.00;;;;;;6118195;28;20523;-44
2022/06/26 14:14:04;;;;;;;0.50;0.20;;;24.20;44.80;;;;;;6121903;28;20224;-44
2022/06/26 14:17:06;;;;;;;0.43;0.30;;;24.20;44.60;;;;;;6122643;28;20047;-44
2022/06/26 14:20:08;;;;;;;0.28;0.10;;;24.20;44.40;;;;;;6122266;28;20318;-46
2022/06/26 14:26:26;;;;;;;0.20;0.10;;;24.20;43.90;;;;;;6121157;28;20233;-42
2022/06/26 14:29:29;;;;;;;0.17;0.10;;;24.20;43.70;;;;;;6118855;28;20042;-43
2022/06/26 14:32:30;;;;;;;0.20;0.10;;;24.20;43.60;;;;;;6119281;28;20187;-42
2022/06/26 14:35:35;;;;;;;0.10;0.10;;;24.20;43.60;;;;;;6122593;28;20035;-45
2022/06/26 14:38:36;;;;;;;0.20;0.10;;;24.20;43.40;;;;;;6120231;28;20446;-45
2022/06/26 14:41:45;;;;;;;0.10;0.10;;;24.10;43.50;;;;;;6124393;28;20066;-44
2022/06/26 14:44:47;;;;;;;0.52;0.10;;;24.20;43.20;;;;;;6123932;28;20327;-48
2022/06/26 14:47:48;;;;;;;0.20;0.20;;;24.00;43.00;;;;;;6120165;28;20047;-45
2022/06/26 14:50:56;;;;;;;0.20;0.13;;;24.30;43.00;;;;;;6125135;28;20900;-48
2022/06/26 14:53:58;;;;;;;0.20;0.20;;;24.10;42.70;;;;;;6107420;28;20039;-45
2022/06/26 14:57:00;;;;;;;0.47;0.20;;;24.20;42.60;;;;;;6124146;28;20673;-47
2022/06/26 15:00:03;;;;;;;0.43;0.10;;;24.10;42.50;;;;;;6121551;28;20046;-43
2022/06/26 15:03:06;;;;;;;0.40;0.25;;;24.10;42.40;;;;;;6121976;28;20815;-44
2022/06/26 15:06:07;;;;;;;0.10;0.10;;;24.10;42.30;;;;;;6127435;28;20133;-43
2022/06/26 15:09:09;;;;;;;0.20;0.15;;;24.10;42.20;;;;;;6116432;28;20100;-43
2022/06/26 15:12:11;;;;;;;0.28;0.20;;;24.20;42.10;;;;;;6121731;28;20073;-45
2022/06/26 15:15:14;;;;;;;0.50;0.10;;;24.10;41.90;;;;;;6123771;28;20053;-44
2022/06/26 15:18:15;;;;;;;0.20;0.20;;;24.10;41.80;;;;;;6124414;28;20556;-43
2022/06/26 15:21:17;;;;;;;0.60;0.10;;;24.20;41.80;;;;;;6120557;28;20596;-42
2022/06/26 15:24:19;;;;;;;0.10;0.10;;;24.10;41.70;;;;;;6122352;28;20070;-46
2022/06/26 15:27:21;;;;;;;0.20;0.20;;;24.20;41.70;;;;;;6126529;28;20496;-48
2022/06/26 15:30:24;;;;;;;0.40;0.22;;;24.10;41.70;;;;;;6120240;28;20267;-44
2022/06/26 15:33:26;;;;;;;0.25;0.20;;;24.10;41.60;;;;;;6120223;28;20043;-44
2022/06/26 15:36:28;;;;;;;0.50;0.20;;;24.10;41.50;;;;;;6123801;28;20951;-46
2022/06/26 15:39:29;;;;;;;0.25;0.20;;;24.10;41.50;;;;;;6124229;28;20058;-42
2022/06/26 15:42:31;;;;;;;0.10;0.10;;;24.10;41.40;;;;;;6123558;28;20165;-44
2022/06/26 15:45:33;;;;;;;0.47;0.10;;;24.20;41.40;;;;;;6125195;28;20049;-44
2022/06/26 15:48:34;;;;;;;0.73;0.30;;;24.10;41.40;;;;;;6128245;28;20105;-42
2022/06/26 15:51:36;;;;;;;0.40;0.10;;;24.10;41.40;;;;;;6124110;28;20263;-44
2022/06/26 15:54:38;;;;;;;0.10;0.00;;;24.10;41.30;;;;;;6122701;28;20099;-43
2022/06/26 15:57:40;;;;;;;0.30;0.20;;;24.40;41.50;;;;;;6125682;28;20050;-45
2022/06/26 16:00:43;;;;;;;0.10;0.10;;;24.20;41.20;;;;;;6124257;28;20276;-44
2022/06/26 16:03:45;;;;;;;0.17;0.10;;;24.10;41.10;;;;;;6123309;28;20090;-46
2022/06/26 16:06:47;;;;;;;0.10;0.10;;;24.10;41.00;;;;;;6127822;28;20281;-43
2022/06/26 16:09:48;;;;;;;0.17;0.15;;;24.20;41.10;;;;;;6128954;28;20054;-43
2022/06/26 16:12:50;;;;;;;0.05;0.05;;;24.10;40.90;;;;;;6124161;28;20403;-44